Time;durP1;ratioP1;P1;durP2;ratioP2;P2;SDS_P1;SDS_P2;PMS_P1;PMS_P2;Temp;Humidity;BMP_temperature;BMP_pressure;BME280_temperature;BME280_humidity;BME280_pressure;Samples;Min_cycle;Max_cycle;Signal;HPM_P1;HPM_P2
2022/03/05 00:00:35;;;;;;;0.77;0.77;;;0.20;99.90;;;;;;5006922;28;20187;-83
2022/03/05 00:03:01;;;;;;;1.70;1.23;;;0.30;99.90;;;;;;4991179;28;20194;-82
2022/03/05 00:05:28;;;;;;;1.70;1.57;;;0.20;99.90;;;;;;5024162;28;20226;-82
2022/03/05 00:07:53;;;;;;;0.93;0.93;;;0.20;99.90;;;;;;5023865;28;20277;-83
2022/03/05 00:10:20;;;;;;;0.70;0.70;;;0.20;99.90;;;;;;5006550;28;20357;-81
2022/03/05 00:12:47;;;;;;;5.30;1.47;;;0.10;99.90;;;;;;5006379;28;20245;-81
2022/03/05 00:15:13;;;;;;;1.37;1.33;;;0.10;99.90;;;;;;5005934;28;20197;-80
2022/03/05 00:17:39;;;;;;;1.47;1.37;;;0.10;99.90;;;;;;4988638;28;20206;-81
2022/03/05 00:20:05;;;;;;;1.43;1.33;;;0.10;99.90;;;;;;4973446;28;20218;-82
2022/03/05 00:22:32;;;;;;;0.60;0.60;;;-0.10;99.90;;;;;;4989206;28;20210;-80
2022/03/05 00:24:58;;;;;;;1.13;0.57;;;-0.20;99.90;;;;;;5021466;28;20226;-80
2022/03/05 00:27:24;;;;;;;0.93;0.93;;;-0.20;99.90;;;;;;5004989;28;20205;-80
2022/03/05 00:29:50;;;;;;;1.53;0.87;;;-0.20;99.90;;;;;;5023173;28;20596;-81
2022/03/05 00:32:16;;;;;;;1.47;1.37;;;-0.30;99.90;;;;;;5004905;28;20268;-80
2022/03/05 00:34:42;;;;;;;1.13;0.80;;;-0.30;99.90;;;;;;5023846;28;20306;-81
2022/03/05 00:37:08;;;;;;;1.10;1.10;;;-0.20;99.90;;;;;;5023271;28;20222;-81
2022/03/05 00:39:35;;;;;;;0.40;0.40;;;-0.20;99.90;;;;;;4989350;28;20235;-82
2022/03/05 00:42:00;;;;;;;4.40;1.53;;;-0.30;99.90;;;;;;5005257;28;20191;-81
2022/03/05 00:44:26;;;;;;;1.03;0.93;;;-0.30;99.90;;;;;;5005033;28;20232;-80
2022/03/05 00:46:52;;;;;;;1.70;0.70;;;-0.30;99.90;;;;;;5022029;28;20706;-81
2022/03/05 00:49:17;;;;;;;1.40;1.40;;;-0.30;99.90;;;;;;4972835;28;20237;-83
2022/03/05 00:51:43;;;;;;;1.00;1.00;;;-0.30;99.90;;;;;;5004497;28;20226;-81
2022/03/05 00:54:09;;;;;;;1.07;1.07;;;-0.30;99.90;;;;;;5004397;28;20282;-81
2022/03/05 00:56:35;;;;;;;1.17;1.13;;;-0.30;99.90;;;;;;4988448;28;20856;-81
2022/03/05 00:59:01;;;;;;;1.20;1.20;;;-0.40;99.90;;;;;;4988909;28;20222;-81
2022/03/05 01:01:27;;;;;;;1.73;1.63;;;-0.40;99.90;;;;;;5005177;28;20223;-80
2022/03/05 01:03:52;;;;;;;1.67;1.57;;;-0.40;99.90;;;;;;5004605;28;20667;-81
2022/03/05 01:06:18;;;;;;;1.97;1.87;;;-0.40;99.90;;;;;;4971651;28;20186;-82
2022/03/05 01:08:44;;;;;;;0.50;0.50;;;-0.40;99.90;;;;;;4972823;28;20222;-81
2022/03/05 01:11:15;;;;;;;1.23;1.13;;;-0.60;99.90;;;;;;4987580;28;20222;-81
2022/03/05 01:13:41;;;;;;;0.70;0.70;;;-0.50;99.90;;;;;;5022047;28;20219;-83
2022/03/05 01:16:07;;;;;;;2.77;1.20;;;-0.60;99.90;;;;;;5004750;28;20325;-80
2022/03/05 01:18:33;;;;;;;4.20;3.07;;;-0.60;99.90;;;;;;4987794;28;20248;-83
2022/03/05 01:20:58;;;;;;;2.13;1.23;;;-0.60;99.90;;;;;;4972168;28;20377;-80
2022/03/05 01:23:24;;;;;;;1.33;0.90;;;-0.50;99.90;;;;;;4987080;28;20211;-81
2022/03/05 01:25:50;;;;;;;0.80;0.80;;;-0.50;99.90;;;;;;4989011;28;20233;-81
2022/03/05 01:28:15;;;;;;;2.43;2.23;;;-0.60;99.90;;;;;;4972003;28;20234;-80
2022/03/05 01:30:41;;;;;;;0.80;0.80;;;-0.60;99.90;;;;;;5005133;28;20586;-81
2022/03/05 01:33:07;;;;;;;0.93;0.93;;;-0.60;99.90;;;;;;4988171;28;20182;-83
2022/03/05 01:35:33;;;;;;;0.70;0.70;;;-0.70;99.90;;;;;;4971292;28;20272;-81
2022/03/05 01:37:59;;;;;;;0.80;0.80;;;-0.60;99.90;;;;;;5002829;28;20226;-81
2022/03/05 01:40:24;;;;;;;1.63;1.53;;;-0.50;99.90;;;;;;5001704;28;20242;-81
2022/03/05 01:42:50;;;;;;;3.47;1.37;;;-0.60;99.90;;;;;;5000884;28;20206;-82
2022/03/05 01:45:16;;;;;;;1.53;1.43;;;-0.60;99.90;;;;;;5019724;28;20655;-80
2022/03/05 01:47:42;;;;;;;1.70;1.53;;;-0.60;99.90;;;;;;4986329;28;20198;-81
2022/03/05 01:50:09;;;;;;;1.40;1.40;;;-0.60;99.90;;;;;;5002043;28;20302;-82
2022/03/05 01:52:35;;;;;;;0.93;0.93;;;-0.70;99.90;;;;;;5002401;28;20785;-81
2022/03/05 01:55:02;;;;;;;3.60;1.13;;;-0.70;99.90;;;;;;4985791;28;20223;-82
2022/03/05 01:57:27;;;;;;;3.93;1.87;;;-0.70;99.90;;;;;;5000785;28;20697;-82
2022/03/05 01:59:53;;;;;;;2.17;1.90;;;-0.70;99.90;;;;;;5018552;28;20199;-80
2022/03/05 02:02:19;;;;;;;1.57;1.50;;;-0.60;99.90;;;;;;5001562;28;20218;-82
2022/03/05 02:04:45;;;;;;;1.27;1.27;;;-0.60;99.90;;;;;;4968668;28;20727;-82
2022/03/05 02:07:11;;;;;;;0.47;0.47;;;-0.60;99.90;;;;;;4969765;28;20250;-80
2022/03/05 02:09:37;;;;;;;0.40;0.40;;;-0.60;99.90;;;;;;5001374;28;20235;-82
2022/03/05 02:12:03;;;;;;;0.97;0.93;;;-0.60;99.90;;;;;;4987287;28;20195;-81
2022/03/05 02:14:29;;;;;;;1.03;0.90;;;-0.60;99.90;;;;;;5020266;28;20669;-80
2022/03/05 02:16:55;;;;;;;4.17;2.27;;;-0.60;99.90;;;;;;4987187;28;20234;-82
2022/03/05 02:19:21;;;;;;;0.73;0.73;;;-0.70;99.90;;;;;;5002812;28;20253;-80
2022/03/05 02:21:47;;;;;;;3.37;2.13;;;-0.80;99.90;;;;;;4986050;28;20301;-81
2022/03/05 02:24:14;;;;;;;1.70;1.70;;;-0.80;99.90;;;;;;5000929;28;20515;-81
2022/03/05 02:26:40;;;;;;;0.97;0.67;;;-0.80;99.90;;;;;;4985586;28;20721;-81
2022/03/05 02:29:06;;;;;;;1.37;1.27;;;-0.90;99.90;;;;;;4997042;28;20356;-81
2022/03/05 02:31:32;;;;;;;0.87;0.77;;;-1.00;99.90;;;;;;4968042;28;20309;-80
2022/03/05 02:33:58;;;;;;;2.50;1.47;;;-1.00;99.90;;;;;;5000020;28;20293;-80
2022/03/05 02:36:25;;;;;;;2.00;1.90;;;-1.00;99.90;;;;;;5000856;28;20220;-81
2022/03/05 02:38:51;;;;;;;5.07;0.97;;;-1.00;99.90;;;;;;5002627;28;20201;-80
2022/03/05 02:41:20;;;;;;;0.93;0.93;;;-1.00;99.90;;;;;;4975783;28;20231;-82
2022/03/05 02:43:46;;;;;;;0.60;0.60;;;-0.90;99.90;;;;;;5007356;28;20225;-80
2022/03/05 02:46:12;;;;;;;0.73;0.73;;;-0.90;99.90;;;;;;4998308;28;20215;-80
2022/03/05 02:48:38;;;;;;;0.93;0.93;;;-0.90;99.90;;;;;;4981503;28;20274;-80
2022/03/05 02:51:04;;;;;;;1.40;1.30;;;-0.90;99.90;;;;;;4965597;28;20234;-81
2022/03/05 02:53:31;;;;;;;0.77;0.53;;;-0.90;99.90;;;;;;4998788;28;20255;-81
2022/03/05 02:55:56;;;;;;;1.60;0.97;;;-1.00;99.90;;;;;;4966011;28;20211;-80
2022/03/05 02:58:22;;;;;;;0.80;0.80;;;-1.10;99.90;;;;;;4981622;28;20291;-81
2022/03/05 03:00:50;;;;;;;1.03;0.87;;;-1.10;99.90;;;;;;4996997;28;20710;-81
2022/03/05 03:03:15;;;;;;;1.17;0.57;;;-1.20;99.90;;;;;;4981868;28;20555;-81
2022/03/05 03:05:41;;;;;;;1.70;1.60;;;-1.20;99.90;;;;;;4966126;28;20215;-80
2022/03/05 03:08:07;;;;;;;1.00;1.00;;;-1.20;99.90;;;;;;4981929;28;20219;-80
2022/03/05 03:10:33;;;;;;;1.47;1.37;;;-1.30;99.90;;;;;;4981372;28;20238;-81
2022/03/05 03:12:59;;;;;;;0.40;0.40;;;-1.30;99.90;;;;;;4998415;28;20230;-81
2022/03/05 03:15:25;;;;;;;1.40;0.60;;;-1.30;99.90;;;;;;4998041;28;20176;-81
2022/03/05 03:17:52;;;;;;;1.70;1.33;;;-1.30;99.90;;;;;;4998029;28;20192;-82
2022/03/05 03:20:21;;;;;;;3.17;3.07;;;-1.20;99.90;;;;;;4997034;28;20219;-81
2022/03/05 03:22:48;;;;;;;0.63;0.63;;;-1.10;99.90;;;;;;4997858;28;20302;-81
2022/03/05 03:25:14;;;;;;;1.30;0.80;;;-1.00;99.90;;;;;;4997325;28;20216;-81
2022/03/05 03:27:40;;;;;;;0.47;0.47;;;-1.00;99.90;;;;;;4999217;28;20223;-82
2022/03/05 03:30:07;;;;;;;1.00;0.90;;;-1.00;99.90;;;;;;5013629;28;21162;-82
2022/03/05 03:32:34;;;;;;;1.83;1.80;;;-1.00;99.90;;;;;;4966472;28;20215;-81
2022/03/05 03:34:59;;;;;;;1.47;1.47;;;-1.00;99.90;;;;;;4983463;28;20306;-81
2022/03/05 03:37:29;;;;;;;4.77;1.63;;;-1.10;99.90;;;;;;4985023;28;20227;-80
2022/03/05 03:39:59;;;;;;;2.30;2.07;;;-1.20;99.90;;;;;;4981684;28;20239;-81
2022/03/05 03:42:26;;;;;;;1.47;1.37;;;-1.20;99.90;;;;;;4993229;28;20202;-80
2022/03/05 03:44:52;;;;;;;2.10;0.87;;;-1.40;99.90;;;;;;4979047;28;20200;-81
2022/03/05 03:47:19;;;;;;;1.93;1.37;;;-1.30;99.90;;;;;;4993092;28;20214;-81
2022/03/05 03:49:45;;;;;;;0.53;0.53;;;-1.40;99.90;;;;;;4980209;28;20245;-80
2022/03/05 03:52:13;;;;;;;0.93;0.83;;;-1.30;99.90;;;;;;4972763;28;20215;-82
2022/03/05 03:54:39;;;;;;;1.33;1.23;;;-1.20;99.90;;;;;;4990690;28;20224;-82
2022/03/05 03:57:05;;;;;;;0.53;0.53;;;-1.10;99.90;;;;;;4976153;28;20542;-81
2022/03/05 03:59:31;;;;;;;0.97;0.97;;;-1.10;99.90;;;;;;4991137;28;21127;-80
2022/03/05 04:01:57;;;;;;;1.47;0.87;;;-1.10;99.90;;;;;;4972951;28;20226;-81
2022/03/05 04:04:22;;;;;;;0.57;0.50;;;-1.10;99.90;;;;;;4990437;28;20266;-83
2022/03/05 04:09:33;;;;;;;0.97;0.97;;;-1.10;99.90;;;;;;4993220;28;20314;-83
2022/03/05 04:11:58;;;;;;;0.50;0.50;;;-1.20;99.90;;;;;;4978378;28;20759;-81
2022/03/05 04:14:24;;;;;;;1.20;1.20;;;-1.20;99.90;;;;;;4990377;28;20219;-82
2022/03/05 04:16:50;;;;;;;0.87;0.87;;;-1.10;99.90;;;;;;4993598;28;20707;-80
2022/03/05 04:19:16;;;;;;;1.03;1.03;;;-0.90;99.90;;;;;;4992578;28;20595;-81
2022/03/05 04:21:42;;;;;;;4.30;2.13;;;-0.80;99.90;;;;;;4996507;28;20245;-81
2022/03/05 04:24:07;;;;;;;1.57;1.47;;;-0.70;99.90;;;;;;4976014;28;20184;-83
2022/03/05 04:26:33;;;;;;;1.97;1.70;;;-0.70;99.90;;;;;;4990689;28;20219;-81
2022/03/05 04:28:59;;;;;;;2.40;1.27;;;-0.60;99.90;;;;;;4978280;28;21072;-81
2022/03/05 04:31:25;;;;;;;0.57;0.57;;;-0.70;99.90;;;;;;4991041;28;20227;-81
2022/03/05 04:33:50;;;;;;;1.57;1.47;;;-0.80;99.90;;;;;;4977117;28;20223;-81
2022/03/05 04:36:16;;;;;;;1.37;1.27;;;-0.80;99.90;;;;;;4973632;28;20200;-79
2022/03/05 04:38:42;;;;;;;1.13;1.13;;;-0.90;99.90;;;;;;4975172;28;21054;-81
2022/03/05 04:41:08;;;;;;;1.17;1.17;;;-0.90;99.90;;;;;;4976654;28;20591;-80
2022/03/05 04:43:33;;;;;;;0.57;0.57;;;-0.90;99.90;;;;;;4985396;28;20242;-81
2022/03/05 04:45:59;;;;;;;0.57;0.57;;;-1.00;99.90;;;;;;4987368;28;20469;-81
2022/03/05 04:48:25;;;;;;;0.97;0.97;;;-1.00;99.90;;;;;;4984779;28;20677;-82
2022/03/05 04:50:51;;;;;;;0.87;0.87;;;-1.10;99.90;;;;;;4987689;28;20219;-81
2022/03/05 04:53:19;;;;;;;1.03;1.03;;;-1.10;99.90;;;;;;4986809;28;20215;-82
2022/03/05 04:55:46;;;;;;;1.43;1.03;;;-1.10;99.90;;;;;;4987731;28;20230;-82
2022/03/05 04:58:12;;;;;;;1.03;1.03;;;-1.20;99.90;;;;;;5019422;28;20330;-83
2022/03/05 05:00:37;;;;;;;1.87;1.73;;;-1.00;99.90;;;;;;5002648;28;20699;-82
2022/03/05 05:03:03;;;;;;;1.77;1.67;;;-1.10;99.90;;;;;;4962115;28;20608;-82
2022/03/05 05:05:29;;;;;;;0.63;0.63;;;-1.10;99.90;;;;;;4960768;28;20219;-82
2022/03/05 05:07:55;;;;;;;1.27;0.93;;;-1.20;99.90;;;;;;5018603;28;20241;-82
2022/03/05 05:10:21;;;;;;;0.60;0.60;;;-1.30;99.90;;;;;;5009709;28;20230;-82
2022/03/05 05:12:47;;;;;;;1.87;1.50;;;-1.30;99.90;;;;;;5001960;28;20227;-82
2022/03/05 05:15:13;;;;;;;2.27;2.17;;;-1.30;99.90;;;;;;4970680;28;20550;-83
2022/03/05 05:17:39;;;;;;;2.43;1.37;;;-1.40;99.90;;;;;;4986731;28;20214;-82
2022/03/05 05:20:05;;;;;;;1.57;1.57;;;-1.50;99.90;;;;;;5013186;28;20215;-82
2022/03/05 05:22:32;;;;;;;2.40;2.20;;;-1.40;99.90;;;;;;5011174;28;20222;-82
2022/03/05 05:24:59;;;;;;;1.83;1.73;;;-1.50;99.90;;;;;;5002430;28;20699;-82
2022/03/05 05:27:25;;;;;;;0.97;0.93;;;-1.40;99.90;;;;;;5002633;28;20183;-81
2022/03/05 05:29:50;;;;;;;0.73;0.73;;;-1.50;99.90;;;;;;5002243;28;20218;-81
2022/03/05 05:32:17;;;;;;;0.80;0.80;;;-1.50;99.90;;;;;;4959228;28;20728;-81
2022/03/05 05:34:43;;;;;;;1.23;1.23;;;-1.50;99.90;;;;;;4999499;28;20310;-81
2022/03/05 05:37:09;;;;;;;1.13;1.13;;;-1.50;99.90;;;;;;4984113;28;20215;-79
2022/03/05 05:39:35;;;;;;;1.40;1.13;;;-1.50;99.90;;;;;;4999063;28;20195;-80
2022/03/05 05:42:00;;;;;;;0.90;0.90;;;-1.50;99.90;;;;;;4960026;28;20254;-81
2022/03/05 05:44:26;;;;;;;1.70;1.60;;;-1.50;99.90;;;;;;4958789;28;20224;-80
2022/03/05 05:46:52;;;;;;;5.87;3.80;;;-1.40;99.90;;;;;;4987065;28;20732;-83
2022/03/05 05:49:18;;;;;;;1.23;0.83;;;-1.40;99.90;;;;;;4972637;28;20404;-80
2022/03/05 05:51:44;;;;;;;0.43;0.43;;;-1.40;99.90;;;;;;4971151;28;20258;-81
2022/03/05 05:54:09;;;;;;;0.43;0.43;;;-1.40;99.90;;;;;;4962906;28;20179;-81
2022/03/05 05:56:35;;;;;;;1.70;1.60;;;-1.40;99.90;;;;;;4956905;28;20318;-81
2022/03/05 05:59:03;;;;;;;0.30;0.30;;;-1.40;99.90;;;;;;4976023;28;20244;-81
2022/03/05 06:01:28;;;;;;;0.77;0.77;;;-1.20;99.90;;;;;;4971085;28;20693;-81
2022/03/05 06:03:54;;;;;;;2.10;0.80;;;-1.20;99.90;;;;;;4969892;28;20224;-81
2022/03/05 06:06:21;;;;;;;3.37;1.20;;;-1.00;99.90;;;;;;4989021;28;20191;-81
2022/03/05 06:08:47;;;;;;;0.83;0.83;;;-1.00;99.90;;;;;;4972546;28;20188;-81
2022/03/05 06:11:13;;;;;;;1.80;1.70;;;-1.00;99.90;;;;;;4971099;28;20664;-81
2022/03/05 06:13:39;;;;;;;0.50;0.50;;;-1.00;99.90;;;;;;4971493;28;20258;-80
2022/03/05 06:16:06;;;;;;;3.37;1.97;;;-0.90;99.90;;;;;;4989619;28;20298;-82
2022/03/05 06:18:32;;;;;;;2.37;1.60;;;-0.90;99.90;;;;;;4972744;28;20188;-81
2022/03/05 06:20:57;;;;;;;1.03;1.03;;;-0.90;99.90;;;;;;4972105;28;20241;-83
2022/03/05 06:23:23;;;;;;;1.73;1.63;;;-0.80;99.90;;;;;;4972152;28;20224;-82
2022/03/05 06:25:50;;;;;;;1.30;1.30;;;-0.70;99.90;;;;;;4986878;28;20243;-83
2022/03/05 06:28:16;;;;;;;0.93;0.93;;;-0.50;99.90;;;;;;4973639;28;20241;-81
2022/03/05 06:30:42;;;;;;;0.77;0.77;;;-0.30;99.90;;;;;;4970424;28;20705;-81
2022/03/05 06:33:08;;;;;;;2.80;1.30;;;-0.10;99.90;;;;;;4964267;28;20196;-81
2022/03/05 06:35:34;;;;;;;1.60;1.43;;;0.20;99.90;;;;;;4968086;28;20231;-82
2022/03/05 06:37:59;;;;;;;1.00;1.00;;;0.20;99.90;;;;;;4990524;28;20223;-83
2022/03/05 06:40:25;;;;;;;2.17;2.07;;;0.50;99.90;;;;;;4964408;28;21055;-82
2022/03/05 06:42:51;;;;;;;0.77;0.77;;;0.80;99.90;;;;;;4983769;28;20715;-82
2022/03/05 06:45:17;;;;;;;1.37;1.27;;;1.00;99.90;;;;;;4982864;28;20541;-83
2022/03/05 06:47:43;;;;;;;1.30;1.30;;;1.00;99.90;;;;;;5002244;28;20777;-82
2022/03/05 06:50:11;;;;;;;2.13;2.03;;;1.10;99.90;;;;;;5010905;28;20226;-82
2022/03/05 06:52:38;;;;;;;0.73;0.73;;;1.30;99.90;;;;;;4999648;28;20272;-82
2022/03/05 06:55:04;;;;;;;0.83;0.83;;;1.60;99.90;;;;;;5011746;28;20218;-83
2022/03/05 06:57:30;;;;;;;1.20;1.20;;;1.70;99.90;;;;;;4982762;28;20228;-82
2022/03/05 06:59:56;;;;;;;0.87;0.87;;;1.90;99.90;;;;;;4981611;28;20191;-82
2022/03/05 07:02:22;;;;;;;0.70;0.70;;;2.10;99.90;;;;;;4956757;28;20225;-82
2022/03/05 07:04:49;;;;;;;2.43;1.53;;;2.20;99.90;;;;;;5005351;28;20305;-82
2022/03/05 07:07:15;;;;;;;3.87;3.50;;;2.30;99.90;;;;;;5001701;28;20270;-82
2022/03/05 07:09:41;;;;;;;1.60;1.50;;;2.60;99.90;;;;;;4967001;28;20230;-82
2022/03/05 07:12:07;;;;;;;1.47;1.37;;;3.00;99.90;;;;;;5014425;28;20282;-82
2022/03/05 07:14:33;;;;;;;0.90;0.90;;;2.90;99.90;;;;;;5002057;28;20218;-84
2022/03/05 07:16:59;;;;;;;1.73;1.67;;;3.00;99.90;;;;;;5002781;28;20222;-81
2022/03/05 07:19:25;;;;;;;2.17;1.40;;;2.70;99.90;;;;;;5001926;28;21210;-81
2022/03/05 07:21:50;;;;;;;0.87;0.87;;;2.50;99.90;;;;;;4964046;28;20669;-80
2022/03/05 07:24:16;;;;;;;2.27;2.07;;;2.50;99.90;;;;;;4987478;28;20194;-80
2022/03/05 07:26:42;;;;;;;2.10;2.00;;;2.20;99.90;;;;;;4986432;28;20215;-80
2022/03/05 07:29:08;;;;;;;1.20;1.17;;;2.10;99.90;;;;;;5017904;28;20231;-80
2022/03/05 07:31:34;;;;;;;3.00;1.60;;;2.10;99.90;;;;;;5018288;28;20238;-82
2022/03/05 07:33:59;;;;;;;1.30;1.30;;;2.40;99.90;;;;;;4987261;28;20214;-82
2022/03/05 07:36:25;;;;;;;1.63;1.30;;;2.40;99.90;;;;;;4986890;28;20261;-93
2022/03/05 07:38:51;;;;;;;2.43;2.23;;;2.50;99.90;;;;;;4994566;28;20191;-93
2022/03/05 07:41:18;;;;;;;1.47;1.40;;;2.70;99.90;;;;;;5022321;28;20238;-93
2022/03/05 07:43:49;;;;;;;1.67;1.57;;;3.00;99.90;;;;;;5017685;28;20226;-93
2022/03/05 07:46:35;;;;;;;0.60;0.60;;;3.70;99.90;;;;;;5001894;28;20233;-95
2022/03/05 07:49:07;;;;;;;2.40;2.00;;;3.90;99.90;;;;;;5024575;28;20305;-92
2022/03/05 07:51:44;;;;;;;3.00;2.13;;;4.80;99.90;;;;;;5036260;28;20308;-93
2022/03/05 07:54:10;;;;;;;2.93;2.40;;;5.20;99.90;;;;;;5020915;28;20552;-92
2022/03/05 07:56:39;;;;;;;7.27;2.50;;;5.80;99.90;;;;;;5012525;28;20299;-93
2022/03/05 07:59:05;;;;;;;2.00;1.27;;;6.20;99.90;;;;;;5011936;28;20682;-91
2022/03/05 08:01:30;;;;;;;2.73;2.37;;;6.10;99.90;;;;;;4989837;28;20245;-92
2022/03/05 08:03:56;;;;;;;2.30;1.70;;;6.30;99.90;;;;;;4989128;28;20298;-92
2022/03/05 08:06:22;;;;;;;3.73;2.20;;;6.30;99.90;;;;;;4989187;28;20402;-93
2022/03/05 08:08:48;;;;;;;2.83;2.07;;;7.10;99.90;;;;;;4989515;28;20261;-92
2022/03/05 08:11:15;;;;;;;3.60;1.30;;;6.80;99.90;;;;;;4986130;28;20215;-92
2022/03/05 08:13:41;;;;;;;1.47;1.37;;;6.30;99.90;;;;;;5017930;28;20215;-91
2022/03/05 08:16:07;;;;;;;4.40;1.83;;;6.40;99.90;;;;;;4990405;28;20686;-93
2022/03/05 08:18:33;;;;;;;2.83;1.70;;;6.30;99.90;;;;;;5006297;28;20702;-90
2022/03/05 08:20:59;;;;;;;3.67;2.13;;;6.10;99.90;;;;;;5007203;28;20282;-90
2022/03/05 08:23:24;;;;;;;2.10;1.77;;;6.10;99.90;;;;;;5003589;28;20306;-91
2022/03/05 08:25:50;;;;;;;2.20;2.03;;;5.70;99.90;;;;;;4992390;28;20225;-90
2022/03/05 08:28:17;;;;;;;2.60;2.27;;;5.90;99.90;;;;;;5015752;28;20590;-92
2022/03/05 08:30:43;;;;;;;10.90;2.93;;;5.70;99.90;;;;;;4966220;28;20250;-90
2022/03/05 08:33:09;;;;;;;2.53;2.30;;;5.20;99.90;;;;;;5006789;28;20233;-94
2022/03/05 08:35:35;;;;;;;5.03;3.13;;;5.00;99.90;;;;;;5024389;28;20335;-93
2022/03/05 08:38:03;;;;;;;7.00;6.33;;;5.10;99.90;;;;;;4991063;28;20298;-91
2022/03/05 08:40:29;;;;;;;5.53;3.90;;;4.90;99.90;;;;;;4971416;28;20285;-91
2022/03/05 08:42:55;;;;;;;4.93;3.57;;;5.20;99.90;;;;;;5011805;28;20245;-89
2022/03/05 08:45:21;;;;;;;3.97;3.40;;;5.30;99.90;;;;;;5004489;28;20183;-91
2022/03/05 08:47:47;;;;;;;2.60;2.37;;;5.20;99.90;;;;;;4989981;28;20541;-88
2022/03/05 08:50:13;;;;;;;5.60;2.30;;;5.00;99.90;;;;;;5015664;28;20266;-88
2022/03/05 08:52:39;;;;;;;3.13;2.03;;;5.20;99.90;;;;;;4989147;28;20215;-88
2022/03/05 08:55:08;;;;;;;2.50;2.30;;;5.20;99.90;;;;;;4988633;28;20279;-88
2022/03/05 08:57:34;;;;;;;4.20;2.53;;;5.40;99.90;;;;;;5012163;28;20179;-87
2022/03/05 09:00:00;;;;;;;3.80;2.53;;;5.20;99.90;;;;;;5022471;28;21125;-89
2022/03/05 09:02:26;;;;;;;3.57;2.47;;;5.10;99.90;;;;;;5014880;28;20310;-88
2022/03/05 09:04:52;;;;;;;9.40;2.97;;;4.90;99.90;;;;;;4987429;28;20222;-88
2022/03/05 09:07:18;;;;;;;3.30;2.27;;;4.40;99.90;;;;;;4987659;28;20211;-88
2022/03/05 09:09:44;;;;;;;2.20;1.70;;;4.10;99.90;;;;;;4988673;28;20304;-87
2022/03/05 09:12:10;;;;;;;1.73;1.57;;;4.00;99.90;;;;;;4988635;28;20191;-88
2022/03/05 09:14:36;;;;;;;2.40;2.30;;;4.00;99.90;;;;;;5004278;28;20214;-88
2022/03/05 09:17:02;;;;;;;6.83;3.10;;;3.80;99.90;;;;;;4972718;28;20234;-87
2022/03/05 09:19:27;;;;;;;1.87;1.50;;;3.90;99.90;;;;;;4988491;28;20218;-87
2022/03/05 09:21:53;;;;;;;2.83;2.50;;;3.90;99.90;;;;;;4973669;28;20218;-88
2022/03/05 09:24:19;;;;;;;1.93;1.90;;;3.90;99.90;;;;;;4987013;28;20213;-85
2022/03/05 09:26:45;;;;;;;2.63;1.47;;;4.00;99.90;;;;;;4970605;28;20706;-86
2022/03/05 09:29:10;;;;;;;6.07;1.27;;;4.10;99.90;;;;;;5003698;28;21088;-87
2022/03/05 09:31:36;;;;;;;1.70;1.43;;;4.00;99.90;;;;;;5003475;28;20710;-88
2022/03/05 09:34:02;;;;;;;1.77;1.73;;;4.00;99.90;;;;;;4987651;28;20264;-87
2022/03/05 09:36:28;;;;;;;1.00;1.00;;;4.00;99.90;;;;;;4987287;28;20608;-87
2022/03/05 09:38:54;;;;;;;4.47;2.47;;;4.10;99.90;;;;;;5005097;28;20187;-90
2022/03/05 09:41:19;;;;;;;4.00;2.67;;;4.20;99.90;;;;;;4961366;28;21186;-87
2022/03/05 09:43:45;;;;;;;2.90;1.20;;;4.10;99.90;;;;;;4992929;28;20219;-90
2022/03/05 09:46:11;;;;;;;1.33;1.33;;;4.20;99.90;;;;;;4962169;28;20282;-90
2022/03/05 09:48:39;;;;;;;5.73;1.57;;;4.30;99.90;;;;;;4968201;28;20222;-90
2022/03/05 09:51:05;;;;;;;2.87;2.63;;;4.30;99.90;;;;;;4983901;28;20199;-90
2022/03/05 09:53:31;;;;;;;2.47;2.33;;;4.30;99.90;;;;;;4983020;28;20702;-88
2022/03/05 09:55:58;;;;;;;3.33;3.13;;;4.30;99.90;;;;;;4985378;28;20216;-89
2022/03/05 09:58:24;;;;;;;1.40;1.37;;;4.50;99.90;;;;;;4976416;28;20239;-87
2022/03/05 10:00:52;;;;;;;3.73;3.00;;;4.40;99.90;;;;;;4992676;28;20254;-87
2022/03/05 10:03:18;;;;;;;4.00;3.67;;;4.50;99.90;;;;;;4985026;28;20186;-89
2022/03/05 10:05:44;;;;;;;3.53;2.27;;;4.50;99.90;;;;;;4969253;28;20384;-87
2022/03/05 10:08:20;;;;;;;2.90;2.37;;;4.60;99.90;;;;;;4984990;28;20223;-87
2022/03/05 10:10:51;;;;;;;1.33;1.23;;;4.70;99.90;;;;;;4983988;28;20286;-90
2022/03/05 10:13:30;;;;;;;0.93;0.87;;;4.70;99.90;;;;;;4983939;28;20232;-88
2022/03/05 10:16:00;;;;;;;3.57;2.50;;;4.80;99.90;;;;;;4985556;28;20213;-91
2022/03/05 10:18:29;;;;;;;2.90;2.70;;;5.00;99.90;;;;;;4985203;28;20199;-87
2022/03/05 10:20:54;;;;;;;4.33;3.83;;;5.00;99.90;;;;;;4994549;28;20192;-89
2022/03/05 10:23:20;;;;;;;1.90;1.20;;;5.30;99.90;;;;;;4994683;28;20751;-89
2022/03/05 10:25:49;;;;;;;3.67;2.97;;;5.50;99.90;;;;;;5000071;28;20251;-90
2022/03/05 10:28:20;;;;;;;4.60;4.30;;;6.00;99.90;;;;;;4967872;28;20565;-91
2022/03/05 10:30:51;;;;;;;5.63;3.47;;;6.20;99.90;;;;;;4967833;28;20223;-89
2022/03/05 10:33:47;;;;;;;4.40;3.30;;;6.40;99.90;;;;;;4985056;28;20192;-88
2022/03/05 10:36:20;;;;;;;2.03;1.90;;;6.60;99.90;;;;;;4969499;28;20767;-90
2022/03/05 10:38:51;;;;;;;6.93;4.40;;;6.60;99.90;;;;;;5000086;28;20292;-89
2022/03/05 10:41:19;;;;;;;2.97;2.83;;;6.50;99.90;;;;;;5006443;28;20303;-89
2022/03/05 10:44:02;;;;;;;4.07;2.50;;;6.60;99.90;;;;;;5021152;28;20292;-90
2022/03/05 10:46:48;;;;;;;4.50;2.67;;;6.50;99.90;;;;;;5013453;28;20225;-90
2022/03/05 10:49:22;;;;;;;4.07;3.77;;;6.70;99.90;;;;;;5025115;28;20257;-88
2022/03/05 10:52:00;;;;;;;3.63;2.83;;;6.40;99.90;;;;;;5007321;28;20221;-88
2022/03/05 10:54:30;;;;;;;3.70;2.03;;;6.60;99.90;;;;;;5023788;28;20205;-87
2022/03/05 10:56:57;;;;;;;8.17;2.97;;;6.60;99.90;;;;;;5025865;28;20310;-90
2022/03/05 10:59:23;;;;;;;6.83;4.27;;;6.60;99.90;;;;;;5024613;28;20237;-90
2022/03/05 11:01:49;;;;;;;3.47;3.10;;;6.80;99.90;;;;;;5025787;28;20226;-91
2022/03/05 11:04:15;;;;;;;6.00;3.17;;;6.70;99.90;;;;;;5008835;28;20223;-90
2022/03/05 11:06:43;;;;;;;5.80;3.43;;;7.00;99.90;;;;;;4989919;28;20799;-86
2022/03/05 11:09:13;;;;;;;11.80;3.43;;;7.20;99.90;;;;;;5008674;28;20222;-90
2022/03/05 11:11:42;;;;;;;4.20;3.87;;;7.50;99.90;;;;;;5024137;28;20227;-88
2022/03/05 11:14:13;;;;;;;6.47;3.33;;;7.40;99.90;;;;;;5006675;28;20306;-88
2022/03/05 11:16:39;;;;;;;6.03;3.47;;;7.30;99.90;;;;;;5003737;28;20364;-90
2022/03/05 11:19:04;;;;;;;2.50;2.30;;;7.20;99.90;;;;;;5006979;28;20627;-88
2022/03/05 11:21:30;;;;;;;4.47;3.80;;;7.30;99.90;;;;;;4990107;28;20189;-89
2022/03/05 11:23:57;;;;;;;8.20;4.77;;;7.40;99.90;;;;;;5008712;28;20196;-90
2022/03/05 11:26:25;;;;;;;4.17;2.93;;;7.80;99.90;;;;;;5024678;28;20214;-90
2022/03/05 11:28:51;;;;;;;5.37;3.90;;;7.50;99.90;;;;;;5008241;28;20445;-90
2022/03/05 11:31:28;;;;;;;6.50;3.40;;;7.30;99.90;;;;;;4991677;28;20215;-88
2022/03/05 11:33:54;;;;;;;5.50;4.50;;;7.60;99.90;;;;;;5007342;28;20222;-90
2022/03/05 11:36:36;;;;;;;7.03;4.33;;;7.60;99.90;;;;;;5023501;28;20206;-89
2022/03/05 11:39:21;;;;;;;6.93;3.63;;;7.50;99.90;;;;;;4999960;28;20194;-90
2022/03/05 11:41:54;;;;;;;6.07;3.30;;;7.50;99.90;;;;;;4968451;28;1097505;-89
2022/03/05 11:44:23;;;;;;;4.37;2.97;;;7.50;99.90;;;;;;5015003;28;20246;-87
2022/03/05 11:47:09;;;;;;;8.50;4.10;;;7.40;99.90;;;;;;5025551;28;20268;-90
2022/03/05 11:49:55;;;;;;;5.37;4.17;;;7.60;99.90;;;;;;4994396;28;20736;-92
2022/03/05 11:52:21;;;;;;;5.13;2.40;;;7.70;99.90;;;;;;5024833;28;20655;-88
2022/03/05 11:55:12;;;;;;;8.73;5.13;;;7.50;99.90;;;;;;5024601;28;20617;-90
2022/03/05 11:57:43;;;;;;;5.77;4.10;;;7.50;99.90;;;;;;5006766;28;20695;-89
2022/03/05 12:00:10;;;;;;;4.60;2.27;;;7.30;99.90;;;;;;5008650;28;20199;-89
2022/03/05 12:02:44;;;;;;;3.70;2.33;;;7.30;99.90;;;;;;4991390;28;20280;-87
2022/03/05 12:05:30;;;;;;;4.63;2.47;;;7.00;99.90;;;;;;5025321;28;20219;-89
2022/03/05 12:07:55;;;;;;;4.17;2.23;;;7.10;99.90;;;;;;4992898;28;20218;-90
2022/03/05 12:10:21;;;;;;;8.43;4.87;;;7.30;99.90;;;;;;5006939;28;20623;-88
2022/03/05 12:13:15;;;;;;;5.17;3.10;;;7.50;99.90;;;;;;4990363;28;20221;-91
2022/03/05 12:15:43;;;;;;;5.83;3.77;;;7.50;99.90;;;;;;5006106;28;20221;-90
2022/03/05 12:18:14;;;;;;;3.57;3.27;;;7.30;99.90;;;;;;5007270;28;20187;-88
2022/03/05 12:20:44;;;;;;;6.93;3.97;;;7.20;99.90;;;;;;5006801;28;20263;-87
2022/03/05 12:23:15;;;;;;;5.20;3.60;;;7.20;99.90;;;;;;5006938;28;20211;-88
2022/03/05 12:25:44;;;;;;;4.57;3.90;;;7.00;99.90;;;;;;5007263;28;20210;-88
2022/03/05 12:28:19;;;;;;;3.00;2.70;;;7.10;99.90;;;;;;5024168;28;20215;-89
2022/03/05 12:30:45;;;;;;;6.53;3.67;;;7.20;99.90;;;;;;5024633;28;20690;-90
2022/03/05 12:33:17;;;;;;;5.30;3.20;;;7.40;99.90;;;;;;5008153;28;20194;-87
2022/03/05 12:35:45;;;;;;;8.90;5.50;;;7.40;99.90;;;;;;5025600;28;20237;-88
2022/03/05 12:38:16;;;;;;;5.33;2.90;;;7.30;99.90;;;;;;5005940;28;20250;-91
2022/03/05 12:40:42;;;;;;;3.87;3.30;;;7.30;99.90;;;;;;5024144;28;20248;-89
2022/03/05 12:43:08;;;;;;;3.47;2.80;;;7.20;99.90;;;;;;4990364;28;20293;-91
2022/03/05 12:45:38;;;;;;;4.97;3.67;;;7.30;99.90;;;;;;5006034;28;20204;-88
2022/03/05 12:48:16;;;;;;;3.63;3.13;;;7.30;99.90;;;;;;5007138;28;20186;-88
2022/03/05 12:50:47;;;;;;;5.60;3.83;;;7.30;99.90;;;;;;5006521;28;20841;-90
2022/03/05 12:53:21;;;;;;;6.53;2.63;;;7.10;99.90;;;;;;5006789;28;20219;-90
2022/03/05 12:55:55;;;;;;;4.13;2.47;;;7.10;99.90;;;;;;5006114;28;20221;-91